Time;durP1;ratioP1;P1;durP2;ratioP2;P2;SDS_P1;SDS_P2;PMS_P1;PMS_P2;Temp;Humidity;BMP_temperature;BMP_pressure;BME280_temperature;BME280_humidity;BME280_pressure;Samples;Min_cycle;Max_cycle;Signal;HPM_P1;HPM_P2
2023/04/05 00:01:53;;;;;;;7.67;4.30;;;;;1.40;96787.00;;;;8336131;28;20261;-67
2023/04/05 00:05:56;;;;;;;10.40;4.80;;;;;1.30;96781.00;;;;8342075;28;20229;-67
2023/04/05 00:10:02;;;;;;;6.20;4.50;;;;;1.20;96779.00;;;;8342167;28;20197;-67
2023/04/05 00:14:06;;;;;;;7.93;4.40;;;;;1.20;96778.00;;;;8341336;28;20225;-67
2023/04/05 00:18:20;;;;;;;9.83;4.63;;;;;1.20;96775.00;;;;8342241;28;20235;-67
2023/04/05 00:22:30;;;;;;;8.17;5.07;;;;;1.10;96769.00;;;;8337185;28;20201;-67
2023/04/05 00:26:37;;;;;;;9.80;5.20;;;;;1.00;96772.00;;;;8342673;28;20197;-67
2023/04/05 00:30:44;;;;;;;7.67;4.53;;;;;1.00;96770.00;;;;8341198;28;20183;-67
2023/04/05 00:34:47;;;;;;;13.40;5.03;;;;;1.00;96761.00;;;;8342446;28;20472;-67
2023/04/05 00:38:52;;;;;;;8.73;4.77;;;;;1.00;96764.00;;;;8340937;28;20212;-67
2023/04/05 00:42:57;;;;;;;9.10;4.87;;;;;0.90;96766.00;;;;8324715;28;20197;-68
2023/04/05 00:46:59;;;;;;;11.63;4.97;;;;;0.90;96763.00;;;;8341417;28;20206;-67
2023/04/05 00:51:03;;;;;;;5.60;4.60;;;;;0.90;96759.00;;;;8342104;28;20206;-68
2023/04/05 00:55:07;;;;;;;6.80;5.23;;;;;0.80;96750.00;;;;8341457;28;20675;-68
2023/04/05 00:59:18;;;;;;;5.90;4.77;;;;;0.80;96753.00;;;;8341056;28;20523;-68
2023/04/05 01:03:25;;;;;;;13.93;4.47;;;;;0.80;96750.00;;;;8341600;28;20221;-68
2023/04/05 01:07:38;;;;;;;11.17;6.00;;;;;0.80;96742.00;;;;8341506;28;20243;-68
2023/04/05 01:11:47;;;;;;;8.37;5.20;;;;;0.70;96746.00;;;;8340475;28;20187;-69
2023/04/05 01:15:52;;;;;;;6.53;4.90;;;;;0.70;96733.00;;;;8332063;28;20563;-69
2023/04/05 01:19:58;;;;;;;5.40;4.47;;;;;0.50;96725.00;;;;8336156;28;20240;-69
2023/04/05 01:24:13;;;;;;;8.53;5.40;;;;;0.40;96725.00;;;;8335881;28;20277;-69
2023/04/05 01:28:33;;;;;;;5.87;4.47;;;;;0.30;96726.00;;;;8336681;28;20198;-70
2023/04/05 01:32:55;;;;;;;8.40;4.83;;;;;0.20;96724.00;;;;8334049;28;20205;-70
2023/04/05 01:37:02;;;;;;;11.87;4.63;;;;;0.10;96722.00;;;;8335899;28;20283;-70
2023/04/05 01:41:05;;;;;;;7.93;4.57;;;;;0.10;96721.00;;;;8335370;28;20193;-69
2023/04/05 01:45:09;;;;;;;8.13;4.83;;;;;0.00;96713.00;;;;8335430;28;20196;-69
2023/04/05 01:49:13;;;;;;;10.67;5.00;;;;;-0.10;96718.00;;;;8334536;28;20198;-69
2023/04/05 01:53:16;;;;;;;11.87;5.13;;;;;-0.10;96708.00;;;;8317622;28;20256;-69
2023/04/05 01:57:22;;;;;;;8.40;5.13;;;;;-0.10;96708.00;;;;8334506;28;20202;-68
2023/04/05 02:01:25;;;;;;;9.73;5.37;;;;;-0.10;96703.00;;;;8334962;28;20628;-68
2023/04/05 02:05:30;;;;;;;6.23;4.23;;;;;0.00;96699.00;;;;8333897;28;20255;-68
2023/04/05 02:09:35;;;;;;;10.40;4.93;;;;;0.00;96686.00;;;;8335012;28;20194;-68
2023/04/05 02:13:38;;;;;;;7.30;4.73;;;;;0.00;96694.00;;;;8334338;28;20217;-68
2023/04/05 02:17:44;;;;;;;11.47;4.87;;;;;-0.10;96689.00;;;;8333978;28;20197;-68
2023/04/05 02:21:52;;;;;;;8.77;4.53;;;;;-0.10;96691.00;;;;8334351;28;20193;-68
2023/04/05 02:25:58;;;;;;;8.03;4.20;;;;;-0.10;96692.00;;;;8333622;28;20194;-67
2023/04/05 02:30:01;;;;;;;7.67;4.57;;;;;-0.10;96678.00;;;;8333920;28;20531;-68
2023/04/05 02:34:08;;;;;;;7.23;4.60;;;;;-0.10;96677.00;;;;8334323;28;20225;-68
2023/04/05 02:38:12;;;;;;;8.53;4.53;;;;;-0.10;96681.00;;;;8315528;28;20198;-68
2023/04/05 02:42:17;;;;;;;10.10;4.20;;;;;-0.10;96679.00;;;;8333625;28;20221;-68
2023/04/05 02:46:23;;;;;;;7.40;4.30;;;;;-0.10;96681.00;;;;8334227;28;20542;-68
2023/04/05 02:50:26;;;;;;;8.83;4.40;;;;;-0.20;96680.00;;;;8332803;28;20225;-68
2023/04/05 02:54:33;;;;;;;11.70;4.87;;;;;-0.30;96676.00;;;;8332376;28;20225;-68
2023/04/05 02:58:39;;;;;;;6.50;4.17;;;;;-0.30;96680.00;;;;8333130;28;20194;-68
2023/04/05 03:02:42;;;;;;;7.33;4.73;;;;;-0.20;96680.00;;;;8360772;23;20252;-72
2023/04/05 03:06:49;;;;;;;8.83;4.03;;;;;-0.20;96679.00;;;;8341639;28;20236;-73
2023/04/05 03:11:05;;;;;;;7.80;4.57;;;;;-0.20;96680.00;;;;8344115;28;20201;-70
2023/04/05 03:15:10;;;;;;;6.47;4.30;;;;;-0.20;96671.00;;;;8349312;28;20677;-74
2023/04/05 03:19:17;;;;;;;7.60;3.83;;;;;-0.20;96671.00;;;;8340599;28;20205;-72
2023/04/05 03:23:20;;;;;;;6.87;4.20;;;;;-0.20;96672.00;;;;8350576;28;20197;-75
2023/04/05 03:27:28;;;;;;;15.40;4.50;;;;;-0.20;96675.00;;;;8348961;28;20291;-72
2023/04/05 03:31:32;;;;;;;8.67;4.17;;;;;-0.20;96671.00;;;;8345672;28;21363;-83
2023/04/05 03:35:37;;;;;;;10.17;4.20;;;;;-0.20;96665.00;;;;8344992;28;20327;-71
2023/04/05 03:39:43;;;;;;;6.53;4.23;;;;;-0.30;96667.00;;;;8338181;28;20206;-72
2023/04/05 03:43:50;;;;;;;10.33;4.43;;;;;-0.40;96666.00;;;;8340998;28;20214;-75
2023/04/05 03:47:58;;;;;;;6.17;3.97;;;;;-0.40;96668.00;;;;8339316;28;20255;-71
2023/04/05 03:52:01;;;;;;;7.47;4.50;;;;;-0.40;96664.00;;;;8345881;28;20665;-69
2023/04/05 03:56:05;;;;;;;5.23;4.30;;;;;-0.50;96661.00;;;;8317679;28;20632;-74
2023/04/05 04:00:13;;;;;;;11.60;4.77;;;;;-0.60;96661.00;;;;8335917;28;20257;-71
2023/04/05 04:04:16;;;;;;;6.97;4.40;;;;;-0.70;96657.00;;;;8336813;28;20356;-70
2023/04/05 04:08:19;;;;;;;8.13;4.80;;;;;-0.80;96654.00;;;;8348972;28;20634;-72
2023/04/05 04:12:22;;;;;;;9.60;4.80;;;;;-1.00;96657.00;;;;8350713;28;20194;-68
2023/04/05 04:16:28;;;;;;;6.87;4.43;;;;;-1.20;96648.00;;;;8348399;28;20232;-71
2023/04/05 04:20:33;;;;;;;10.43;5.23;;;;;-1.30;96652.00;;;;8348992;28;20291;-69
2023/04/05 04:24:39;;;;;;;11.10;5.63;;;;;-1.40;96649.00;;;;8347320;28;20225;-67
2023/04/05 04:28:43;;;;;;;8.57;4.80;;;;;-1.50;96658.00;;;;8351579;28;20208;-69
2023/04/05 04:32:54;;;;;;;12.10;4.93;;;;;-1.60;96652.00;;;;8339293;28;20196;-67
2023/04/05 04:37:00;;;;;;;11.80;5.40;;;;;-1.70;96649.00;;;;8346382;28;20224;-74
2023/04/05 04:41:08;;;;;;;10.43;4.97;;;;;-1.70;96647.00;;;;8348700;28;20245;-70
2023/04/05 04:45:20;;;;;;;12.03;5.50;;;;;-1.70;96654.00;;;;8343566;28;20231;-68
2023/04/05 04:49:24;;;;;;;6.83;4.63;;;;;-1.50;96653.00;;;;8351967;28;20267;-73
2023/04/05 04:53:30;;;;;;;12.97;5.10;;;;;-1.30;96647.00;;;;8330731;28;20200;-70
2023/04/05 04:57:32;;;;;;;16.33;6.30;;;;;-1.20;96650.00;;;;8351085;28;20251;-71
2023/04/05 05:01:36;;;;;;;10.43;5.50;;;;;-1.00;96666.00;;;;8350511;28;20201;-75
2023/04/05 05:05:45;;;;;;;8.87;5.23;;;;;-0.90;96656.00;;;;8344307;28;20903;-75
2023/04/05 05:09:51;;;;;;;7.53;4.53;;;;;-0.90;96662.00;;;;8353762;28;20193;-67
2023/04/05 05:13:58;;;;;;;5.93;4.40;;;;;-0.80;96658.00;;;;8347787;28;20197;-74
2023/04/05 05:18:04;;;;;;;6.50;3.60;;;;;-0.70;96668.00;;;;8344976;28;20493;-75
2023/04/05 05:22:09;;;;;;;10.10;5.23;;;;;-0.60;96670.00;;;;8338806;28;20200;-73
2023/04/05 05:26:13;;;;;;;9.23;4.73;;;;;-0.60;96671.00;;;;8355325;28;20291;-75
2023/04/05 05:30:17;;;;;;;5.63;4.43;;;;;-0.50;96663.00;;;;8362837;28;20758;-72
2023/04/05 05:34:20;;;;;;;8.63;5.37;;;;;-0.50;96662.00;;;;8355192;28;20231;-75
2023/04/05 05:38:25;;;;;;;12.03;5.53;;;;;-0.40;96666.00;;;;8349322;28;20224;-72
2023/04/05 05:42:28;;;;;;;10.00;4.77;;;;;-0.30;96668.00;;;;8355553;28;20279;-75
2023/04/05 05:46:32;;;;;;;13.20;4.93;;;;;-0.20;96667.00;;;;8347126;28;20736;-72
2023/04/05 05:50:35;;;;;;;8.27;5.10;;;;;-0.20;96682.00;;;;8352870;28;20230;-71
2023/04/05 05:54:39;;;;;;;7.43;4.40;;;;;-0.10;96682.00;;;;8342642;28;20232;-72
2023/04/05 05:58:42;;;;;;;8.00;4.67;;;;;0.10;96679.00;;;;8343029;28;20283;-73
2023/04/05 06:02:45;;;;;;;9.43;4.77;;;;;0.20;96683.00;;;;8350853;28;20311;-73
2023/04/05 06:06:51;;;;;;;7.90;4.43;;;;;0.30;96677.00;;;;8351900;28;20371;-71
2023/04/05 06:10:58;;;;;;;9.90;4.63;;;;;0.40;96687.00;;;;8349819;28;20555;-73
2023/04/05 06:15:04;;;;;;;11.03;4.67;;;;;0.50;96690.00;;;;8357985;28;20228;-73
2023/04/05 06:19:08;;;;;;;12.70;5.30;;;;;0.60;96696.00;;;;8351847;28;20215;-73
2023/04/05 06:23:13;;;;;;;16.70;4.77;;;;;0.80;96695.00;;;;8353798;28;20821;-72
2023/04/05 06:27:17;;;;;;;6.70;4.30;;;;;0.90;96699.00;;;;8351886;28;20748;-73
2023/04/05 06:31:21;;;;;;;9.70;4.10;;;;;1.10;96689.00;;;;8355561;28;20212;-76
2023/04/05 06:35:26;;;;;;;8.20;4.90;;;;;1.20;96692.00;;;;8358721;28;20782;-76
2023/04/05 06:39:30;;;;;;;10.97;5.03;;;;;1.40;96699.00;;;;8351219;28;20225;-74
2023/04/05 06:43:34;;;;;;;10.80;5.10;;;;;1.60;96696.00;;;;8353628;28;20197;-74
2023/04/05 06:47:41;;;;;;;7.40;4.30;;;;;1.90;96697.00;;;;8343831;28;20670;-73
2023/04/05 06:51:47;;;;;;;7.73;4.03;;;;;2.30;96701.00;;;;8347536;28;20299;-75
2023/04/05 06:55:50;;;;;;;7.97;4.10;;;;;2.50;96702.00;;;;8349957;28;20225;-73
2023/04/05 06:59:54;;;;;;;9.67;4.70;;;;;2.70;96710.00;;;;8344116;28;20226;-73
2023/04/05 07:03:57;;;;;;;7.57;3.93;;;;;2.90;96705.00;;;;8346093;28;20621;-70
2023/04/05 07:08:02;;;;;;;8.93;4.47;;;;;3.00;96698.00;;;;8358318;28;20252;-71
2023/04/05 07:12:07;;;;;;;5.67;3.43;;;;;3.30;96700.00;;;;8340453;28;20203;-71
2023/04/05 07:16:12;;;;;;;5.03;3.53;;;;;3.40;96700.00;;;;8350342;28;20306;-72
2023/04/05 07:20:16;;;;;;;14.30;4.67;;;;;3.80;96704.00;;;;8335743;28;20225;-73
2023/04/05 07:24:22;;;;;;;5.30;3.70;;;;;4.00;96703.00;;;;8350226;28;20258;-76
2023/04/05 07:28:27;;;;;;;7.50;4.23;;;;;4.20;96701.00;;;;8351599;28;20230;-78
2023/04/05 07:32:40;;;;;;;5.77;3.47;;;;;4.40;96697.00;;;;8350496;28;20196;-76
2023/04/05 07:36:46;;;;;;;8.50;3.80;;;;;4.50;96704.00;;;;8348438;28;20225;-75
2023/04/05 07:40:55;;;;;;;8.00;3.77;;;;;4.50;96699.00;;;;8332969;28;20194;-75
2023/04/05 07:44:58;;;;;;;5.17;3.83;;;;;4.30;96695.00;;;;8345437;28;20197;-75
2023/04/05 07:49:02;;;;;;;5.50;3.20;;;;;4.50;96702.00;;;;8353249;28;20279;-72
2023/04/05 07:53:11;;;;;;;5.50;3.80;;;;;4.50;96693.00;;;;8351783;28;20246;-74
2023/04/05 07:57:17;;;;;;;5.47;2.93;;;;;4.70;96701.00;;;;8349082;28;20224;-73
2023/04/05 08:01:26;;;;;;;9.23;3.93;;;;;5.10;96701.00;;;;8351979;28;20207;-73
2023/04/05 08:05:32;;;;;;;7.70;3.80;;;;;5.30;96708.00;;;;8350552;28;20196;-70
2023/04/05 08:09:38;;;;;;;7.03;3.60;;;;;5.50;96700.00;;;;8350183;28;20204;-73
2023/04/05 08:13:41;;;;;;;7.43;3.53;;;;;5.80;96707.00;;;;8352690;28;20195;-69
2023/04/05 08:17:44;;;;;;;5.33;3.23;;;;;5.90;96705.00;;;;8349610;28;20696;-74
2023/04/05 08:21:48;;;;;;;4.53;2.90;;;;;6.10;96707.00;;;;8353260;28;20237;-70
2023/04/05 08:25:51;;;;;;;8.97;4.00;;;;;6.90;96691.00;;;;8354779;28;20232;-70
2023/04/05 08:29:54;;;;;;;5.33;3.63;;;;;7.60;96705.00;;;;8343043;28;20199;-71
2023/04/05 08:33:57;;;;;;;7.60;3.27;;;;;8.10;96700.00;;;;8363891;28;20200;-71
2023/04/05 08:38:01;;;;;;;5.40;3.20;;;;;8.40;96698.00;;;;8357355;28;20753;-72
2023/04/05 08:42:11;;;;;;;5.87;2.80;;;;;9.20;96696.00;;;;8336957;28;20265;-73
2023/04/05 08:46:18;;;;;;;7.27;3.40;;;;;9.60;96702.00;;;;8357925;28;20204;-73
2023/04/05 08:50:23;;;;;;;4.07;2.93;;;;;10.10;96705.00;;;;8358694;28;20243;-70
2023/04/05 08:54:28;;;;;;;6.33;3.47;;;;;10.30;96705.00;;;;8360442;28;20288;-71
2023/04/05 08:58:35;;;;;;;4.27;3.20;;;;;10.30;96697.00;;;;8356228;28;20886;-70
2023/04/05 09:02:38;;;;;;;5.10;3.27;;;;;9.90;96698.00;;;;8358785;28;20260;-70
2023/04/05 09:06:45;;;;;;;4.80;3.00;;;;;9.90;96681.00;;;;8363076;28;20672;-71
2023/04/05 09:11:00;;;;;;;6.63;3.53;;;;;9.80;96683.00;;;;8350592;28;20208;-71
2023/04/05 09:15:05;;;;;;;4.77;3.30;;;;;9.90;96676.00;;;;8353559;28;20205;-71
2023/04/05 09:19:10;;;;;;;6.00;3.43;;;;;9.80;96685.00;;;;8351103;28;20324;-73
2023/04/05 09:23:13;;;;;;;8.43;3.70;;;;;10.20;96683.00;;;;8351938;28;20339;-71
2023/04/05 09:27:18;;;;;;;4.20;3.43;;;;;10.70;96681.00;;;;8351730;28;20316;-71
2023/04/05 09:31:32;;;;;;;4.83;3.63;;;;;11.60;96680.00;;;;8347157;28;20204;-73
2023/04/05 09:35:36;;;;;;;6.73;3.60;;;;;10.90;96685.00;;;;8348152;28;20741;-74
2023/04/05 09:39:41;;;;;;;5.80;3.60;;;;;10.40;96675.00;;;;8344322;28;20331;-74
2023/04/05 09:43:46;;;;;;;5.03;3.60;;;;;9.70;96677.00;;;;8352941;28;20291;-74
2023/04/05 09:47:55;;;;;;;7.43;3.60;;;;;9.00;96677.00;;;;8354144;28;20192;-75
2023/04/05 09:51:58;;;;;;;5.40;3.60;;;;;8.50;96677.00;;;;8354049;28;20201;-72
2023/04/05 09:56:09;;;;;;;5.70;3.50;;;;;8.70;96673.00;;;;8351866;28;20266;-76
2023/04/05 10:00:20;;;;;;;3.90;3.57;;;;;8.80;96670.00;;;;8340804;28;20958;-72
2023/04/05 10:04:25;;;;;;;3.83;3.37;;;;;8.80;96679.00;;;;8340733;28;20229;-72
2023/04/05 10:08:37;;;;;;;7.73;3.13;;;;;9.50;96671.00;;;;8344736;28;20259;-73
2023/04/05 10:12:41;;;;;;;3.50;3.00;;;;;10.50;96676.00;;;;8348154;28;20197;-73
2023/04/05 10:16:59;;;;;;;5.47;2.87;;;;;10.90;96690.00;;;;8350226;28;20225;-72
2023/04/05 10:21:04;;;;;;;5.30;3.50;;;;;10.40;96670.00;;;;8332629;28;20197;-72
2023/04/05 10:25:14;;;;;;;5.80;3.30;;;;;10.20;96673.00;;;;8345543;28;20220;-72
2023/04/05 10:29:25;;;;;;;6.00;3.40;;;;;10.10;96671.00;;;;8347486;28;20193;-72
2023/04/05 10:33:35;;;;;;;4.47;3.30;;;;;9.90;96681.00;;;;8346874;28;20209;-72
2023/04/05 10:37:48;;;;;;;3.50;3.20;;;;;9.70;96662.00;;;;8350434;28;20251;-72
2023/04/05 10:41:53;;;;;;;4.67;2.93;;;;;10.10;96668.00;;;;8348350;28;20711;-71
2023/04/05 10:45:59;;;;;;;16.20;5.88;;;;;10.30;96661.00;;;;8345331;28;20231;-71
2023/04/05 10:50:11;;;;;;;3.90;3.07;;;;;10.10;96657.00;;;;8354257;28;20198;-71
2023/04/05 10:54:16;;;;;;;5.50;2.93;;;;;10.30;96644.00;;;;8351683;28;20843;-70
2023/04/05 10:58:22;;;;;;;5.03;2.93;;;;;10.00;96652.00;;;;8345948;28;20228;-70
2023/04/05 11:02:29;;;;;;;3.30;3.00;;;;;10.00;96652.00;;;;8347616;28;20225;-70
2023/04/05 11:06:36;;;;;;;4.10;3.03;;;;;9.20;96653.00;;;;8345249;28;20198;-70
2023/04/05 11:10:42;;;;;;;3.80;2.87;;;;;9.10;96645.00;;;;8343820;28;20220;-70
2023/04/05 11:14:46;;;;;;;6.53;3.03;;;;;9.30;96645.00;;;;8348012;28;20216;-70
2023/04/05 11:18:50;;;;;;;6.43;2.63;;;;;9.30;96641.00;;;;8344764;28;20233;-71
2023/04/05 11:22:58;;;;;;;4.97;2.70;;;;;9.80;96650.00;;;;8350812;28;20197;-71
2023/04/05 11:27:09;;;;;;;4.40;2.87;;;;;10.00;96647.00;;;;8348079;28;20200;-71
2023/04/05 11:31:14;;;;;;;6.87;2.90;;;;;9.40;96641.00;;;;8349562;28;21271;-72
2023/04/05 11:35:22;;;;;;;4.23;2.57;;;;;9.40;96640.00;;;;8351746;28;20197;-72
2023/04/05 11:39:29;;;;;;;4.10;3.23;;;;;9.90;96639.00;;;;8349317;28;20633;-72
2023/04/05 11:43:37;;;;;;;7.57;2.70;;;;;9.50;96632.00;;;;8348686;28;20196;-72
2023/04/05 11:47:40;;;;;;;4.72;2.90;;;;;9.60;96636.00;;;;8351612;28;20208;-72
2023/04/05 11:51:47;;;;;;;3.67;2.40;;;;;10.00;96635.00;;;;8354034;28;20303;-73
2023/04/05 11:55:52;;;;;;;4.13;2.77;;;;;9.80;96637.00;;;;8346235;28;20201;-72
2023/04/05 11:59:59;;;;;;;5.55;2.78;;;;;9.30;96631.00;;;;8347644;28;20247;-73
2023/04/05 12:04:02;;;;;;;4.67;2.80;;;;;9.00;96617.00;;;;8346334;28;20700;-72
2023/04/05 12:08:06;;;;;;;5.37;2.80;;;;;8.60;96614.00;;;;8346883;28;20217;-71
2023/04/05 12:12:17;;;;;;;3.63;2.50;;;;;8.50;96623.00;;;;8348685;28;20288;-71
2023/04/05 12:16:24;;;;;;;4.80;2.90;;;;;8.70;96612.00;;;;8354113;28;20201;-73
2023/04/05 12:20:32;;;;;;;4.70;2.90;;;;;8.60;96604.00;;;;8346967;28;20235;-72
2023/04/05 12:24:37;;;;;;;4.33;2.90;;;;;8.60;96610.00;;;;8349849;28;20661;-72
2023/04/05 12:28:52;;;;;;;4.50;2.90;;;;;8.90;96594.00;;;;8348202;28;20205;-72
2023/04/05 12:32:56;;;;;;;4.97;3.07;;;;;9.50;96586.00;;;;8354056;28;20279;-72
2023/04/05 12:37:03;;;;;;;5.77;2.60;;;;;10.10;96591.00;;;;8333250;28;20233;-72
2023/04/05 12:41:06;;;;;;;4.97;3.15;;;;;10.30;96589.00;;;;8357516;28;20199;-72
2023/04/05 12:45:18;;;;;;;3.65;2.45;;;;;10.30;96589.00;;;;8353326;28;20194;-73
2023/04/05 12:49:21;;;;;;;4.68;2.58;;;;;10.60;96580.00;;;;8348613;28;20201;-73
2023/04/05 12:53:27;;;;;;;3.55;2.63;;;;;10.90;96577.00;;;;8350842;28;20220;-74
2023/04/05 12:57:33;;;;;;;4.33;2.90;;;;;11.40;96578.00;;;;8350945;28;20220;-73
2023/04/05 13:01:39;;;;;;;4.30;2.88;;;;;11.60;96584.00;;;;8352429;28;20202;-73
2023/04/05 13:05:42;;;;;;;6.65;3.65;;;;;10.90;96573.00;;;;8328463;28;20194;-73
2023/04/05 13:09:50;;;;;;;7.38;3.25;;;;;10.40;96572.00;;;;8353411;28;20200;-73
2023/04/05 13:13:55;;;;;;;4.00;3.10;;;;;9.80;96567.00;;;;8357821;28;20831;-73
2023/04/05 13:18:02;;;;;;;4.33;2.87;;;;;9.30;96566.00;;;;8351020;28;20224;-73
2023/04/05 13:22:05;;;;;;;3.67;2.90;;;;;9.10;96558.00;;;;8351454;28;20590;-73
2023/04/05 13:26:08;;;;;;;4.77;3.63;;;;;8.90;96560.00;;;;8355537;28;20204;-73
2023/04/05 13:30:13;;;;;;;3.63;2.63;;;;;8.90;96564.00;;;;8354323;28;20193;-74
2023/04/05 13:34:20;;;;;;;3.53;2.70;;;;;9.10;96543.00;;;;8322108;28;20653;-73
2023/04/05 13:38:23;;;;;;;3.43;2.43;;;;;9.50;96541.00;;;;8352237;28;20259;-74
2023/04/05 13:42:26;;;;;;;3.10;2.80;;;;;9.80;96542.00;;;;8330453;28;20196;-74
2023/04/05 13:46:29;;;;;;;3.40;3.10;;;;;10.10;96539.00;;;;8338641;28;20192;-75
2023/04/05 13:50:35;;;;;;;4.75;2.80;;;;;10.60;96535.00;;;;8353025;28;20231;-74
2023/04/05 13:54:40;;;;;;;9.57;2.85;;;;;11.20;96540.00;;;;8356558;28;20208;-75
2023/04/05 13:58:44;;;;;;;3.20;2.67;;;;;12.20;96534.00;;;;8350228;28;20320;-75
2023/04/05 14:02:48;;;;;;;3.33;2.88;;;;;12.60;96529.00;;;;8346491;28;20290;-74
2023/04/05 14:06:56;;;;;;;3.00;2.70;;;;;12.50;96539.00;;;;8351767;28;20204;-75
2023/04/05 14:11:00;;;;;;;5.15;3.10;;;;;12.80;96534.00;;;;8353965;28;20609;-75
2023/04/05 14:15:08;;;;;;;7.10;2.90;;;;;13.00;96530.00;;;;8350425;28;20197;-74
2023/04/05 14:19:11;;;;;;;3.75;2.60;;;;;13.00;96536.00;;;;8345929;28;20395;-74
2023/04/05 14:23:15;;;;;;;3.10;2.80;;;;;13.20;96531.00;;;;8352315;28;20246;-74
2023/04/05 14:27:30;;;;;;;5.07;3.28;;;;;13.10;96525.00;;;;8340835;28;20863;-74
2023/04/05 14:31:33;;;;;;;3.58;2.90;;;;;13.00;96523.00;;;;8351135;28;20205;-74
2023/04/05 14:35:36;;;;;;;5.28;3.35;;;;;13.20;96520.00;;;;8355337;28;20565;-75
2023/04/05 14:39:45;;;;;;;5.22;3.40;;;;;13.20;96512.00;;;;8342010;28;20234;-75
2023/04/05 14:43:51;;;;;;;4.75;2.97;;;;;12.90;96509.00;;;;8350491;28;20791;-74
2023/04/05 14:47:54;;;;;;;3.40;3.00;;;;;12.50;96514.00;;;;8347657;28;20204;-75
2023/04/05 14:51:57;;;;;;;3.35;2.95;;;;;12.50;96516.00;;;;8355503;28;20203;-74
2023/04/05 14:56:02;;;;;;;4.57;3.00;;;;;12.10;96520.00;;;;8356435;28;20197;-74
2023/04/05 15:00:09;;;;;;;9.18;3.05;;;;;11.30;96519.00;;;;8342713;28;20226;-74
2023/04/05 15:04:13;;;;;;;5.75;3.13;;;;;10.70;96514.00;;;;8348393;28;20228;-75
2023/04/05 15:08:17;;;;;;;7.25;3.45;;;;;10.20;96509.00;;;;8339397;28;20659;-74
2023/04/05 15:12:21;;;;;;;4.23;2.60;;;;;9.80;96506.00;;;;8349638;28;20232;-74
2023/04/05 15:16:24;;;;;;;3.22;2.95;;;;;9.60;96507.00;;;;8356778;28;20242;-74
2023/04/05 15:20:27;;;;;;;4.13;3.00;;;;;9.40;96501.00;;;;8336860;28;20220;-74
2023/04/05 15:24:30;;;;;;;7.60;2.90;;;;;9.30;96502.00;;;;8349786;28;20681;-75
2023/04/05 15:28:38;;;;;;;5.80;3.67;;;;;9.30;96500.00;;;;8326851;28;20665;-75
2023/04/05 15:32:44;;;;;;;5.72;3.20;;;;;9.20;96497.00;;;;8343769;28;20197;-74
2023/04/05 15:36:50;;;;;;;4.00;2.80;;;;;9.20;96504.00;;;;8357114;28;20901;-74
2023/04/05 15:40:53;;;;;;;3.27;2.83;;;;;9.10;96505.00;;;;8356858;28;20224;-75
2023/04/05 15:45:00;;;;;;;3.85;2.90;;;;;9.10;96508.00;;;;8357136;28;20215;-74
2023/04/05 15:49:05;;;;;;;2.85;2.35;;;;;9.10;96502.00;;;;8354446;28;20258;-74
2023/04/05 15:53:22;;;;;;;5.25;2.90;;;;;9.10;96498.00;;;;8352720;28;20197;-74
2023/04/05 15:57:28;;;;;;;5.95;3.20;;;;;9.30;96497.00;;;;8348151;28;20193;-74
2023/04/05 16:01:32;;;;;;;7.13;3.67;;;;;9.90;96504.00;;;;8348638;28;20236;-74
2023/04/05 16:05:42;;;;;;;7.13;4.15;;;;;10.30;96499.00;;;;8351603;28;20216;-75
2023/04/05 16:09:45;;;;;;;6.03;3.40;;;;;10.70;96498.00;;;;8353943;28;20230;-75
2023/04/05 16:13:51;;;;;;;7.30;3.45;;;;;10.90;96493.00;;;;8346779;28;20243;-75
2023/04/05 16:17:58;;;;;;;4.82;3.25;;;;;11.00;96495.00;;;;8344371;28;20200;-75
2023/04/05 16:22:03;;;;;;;3.65;3.10;;;;;11.20;96488.00;;;;8349893;28;20200;-75
2023/04/05 16:26:08;;;;;;;5.10;3.45;;;;;11.40;96493.00;;;;8348650;28;20216;-75
2023/04/05 16:30:11;;;;;;;4.35;3.53;;;;;11.70;96494.00;;;;8355537;28;20232;-75
2023/04/05 16:34:19;;;;;;;6.53;3.30;;;;;11.90;96499.00;;;;8351360;28;20279;-75
2023/04/05 16:38:25;;;;;;;6.90;4.05;;;;;12.30;96489.00;;;;8350949;28;20227;-75
2023/04/05 16:42:33;;;;;;;4.25;3.00;;;;;12.30;96507.00;;;;8356723;28;20197;-75
2023/04/05 16:46:44;;;;;;;5.03;2.95;;;;;11.70;96500.00;;;;8364259;28;20263;-75
2023/04/05 16:50:49;;;;;;;6.32;3.55;;;;;10.90;96496.00;;;;8348546;28;20260;-75
2023/04/05 16:54:52;;;;;;;10.35;6.05;;;;;10.10;96503.00;;;;8350645;28;20199;-74
2023/04/05 16:58:57;;;;;;;9.07;4.93;;;;;9.50;96492.00;;;;8354092;28;20307;-75
2023/04/05 17:03:02;;;;;;;7.67;4.30;;;;;8.90;96498.00;;;;8351258;28;20228;-73
2023/04/05 17:07:09;;;;;;;9.53;4.53;;;;;8.50;96501.00;;;;8348330;28;20828;-73
2023/04/05 17:11:14;;;;;;;4.50;3.10;;;;;8.20;96495.00;;;;8327170;28;20190;-73
2023/04/05 17:15:21;;;;;;;8.53;3.93;;;;;8.10;96493.00;;;;8350925;28;20204;-73
2023/04/05 17:19:24;;;;;;;5.67;3.80;;;;;7.90;96499.00;;;;8346879;28;20248;-73
2023/04/05 17:23:36;;;;;;;6.77;4.03;;;;;7.60;96497.00;;;;8345792;28;20240;-73
2023/04/05 17:27:40;;;;;;;9.70;3.73;;;;;7.50;96497.00;;;;8353951;28;20204;-73
2023/04/05 17:31:46;;;;;;;7.90;3.67;;;;;7.30;96503.00;;;;8347698;28;20201;-78
2023/04/05 17:36:02;;;;;;;6.47;4.00;;;;;7.00;96495.00;;;;8347485;28;20219;-74
2023/04/05 17:40:14;;;;;;;6.27;3.63;;;;;6.70;96494.00;;;;8345238;28;20275;-75
2023/04/05 17:44:21;;;;;;;7.67;4.00;;;;;6.40;96504.00;;;;8350647;28;20199;-74
2023/04/05 17:48:24;;;;;;;5.37;3.87;;;;;6.20;96504.00;;;;8357303;28;20200;-74
2023/04/05 17:52:30;;;;;;;8.13;3.50;;;;;5.90;96500.00;;;;8353125;28;20233;-76
2023/04/05 17:56:35;;;;;;;6.13;3.93;;;;;5.60;96496.00;;;;8348089;28;20711;-75
2023/04/05 18:00:39;;;;;;;10.30;3.90;;;;;5.30;96507.00;;;;8328612;28;20228;-75
2023/04/05 18:04:43;;;;;;;8.40;4.10;;;;;5.10;96512.00;;;;8345218;28;20237;-74
2023/04/05 18:08:48;;;;;;;9.43;4.93;;;;;4.80;96503.00;;;;8349584;28;20211;-74
2023/04/05 18:12:54;;;;;;;8.53;4.40;;;;;4.60;96519.00;;;;8348573;28;20201;-75
2023/04/05 18:16:58;;;;;;;7.53;4.07;;;;;4.40;96523.00;;;;8349431;28;20645;-74
2023/04/05 18:21:01;;;;;;;8.83;4.77;;;;;4.10;96517.00;;;;8342086;28;21027;-75
2023/04/05 18:25:07;;;;;;;12.40;4.50;;;;;3.90;96520.00;;;;8357537;28;20212;-75
2023/04/05 18:29:11;;;;;;;8.67;4.47;;;;;3.80;96518.00;;;;8355179;28;20203;-75
2023/04/05 18:33:15;;;;;;;6.93;4.13;;;;;3.60;96532.00;;;;8353463;28;20566;-75
2023/04/05 18:37:18;;;;;;;8.33;4.17;;;;;3.40;96530.00;;;;8319004;28;20219;-75
2023/04/05 18:41:26;;;;;;;5.63;3.67;;;;;3.30;96537.00;;;;8356288;28;20247;-74
2023/04/05 18:45:30;;;;;;;6.20;3.60;;;;;3.10;96529.00;;;;8357624;28;20655;-74
2023/04/05 18:49:35;;;;;;;11.77;4.80;;;;;3.00;96539.00;;;;8359845;28;20212;-75
2023/04/05 18:53:39;;;;;;;5.53;3.70;;;;;2.90;96534.00;;;;8355288;28;20200;-75
2023/04/05 18:57:45;;;;;;;7.10;4.10;;;;;2.70;96551.00;;;;8358500;28;20219;-76
2023/04/05 19:01:56;;;;;;;4.80;3.70;;;;;2.60;96553.00;;;;8352789;28;20227;-78
2023/04/05 19:06:04;;;;;;;8.67;4.13;;;;;2.50;96557.00;;;;8351615;28;20193;-77
2023/04/05 19:10:08;;;;;;;7.87;4.23;;;;;2.30;96555.00;;;;8357726;28;20212;-79
2023/04/05 19:14:11;;;;;;;7.90;4.10;;;;;2.20;96553.00;;;;8358662;28;20196;-78
2023/04/05 19:18:16;;;;;;;5.30;3.87;;;;;2.10;96558.00;;;;8360493;28;20227;-77
2023/04/05 19:22:19;;;;;;;8.97;3.83;;;;;2.00;96558.00;;;;8350830;28;20730;-77
2023/04/05 19:26:25;;;;;;;7.27;3.93;;;;;1.90;96560.00;;;;8352950;28;20555;-76
2023/04/05 19:30:31;;;;;;;5.43;3.80;;;;;1.90;96558.00;;;;8348086;28;20203;-77
2023/04/05 19:34:38;;;;;;;4.80;3.67;;;;;1.80;96565.00;;;;8363374;28;20194;-77
2023/04/05 19:38:43;;;;;;;7.30;4.07;;;;;1.80;96560.00;;;;8350639;28;20238;-75
2023/04/05 19:42:47;;;;;;;4.10;3.63;;;;;1.80;96557.00;;;;8344642;28;20308;-75
2023/04/05 19:46:50;;;;;;;7.63;5.13;;;;;1.80;96560.00;;;;8358886;28;20646;-76
2023/04/05 19:50:57;;;;;;;7.67;4.23;;;;;1.70;96555.00;;;;8362234;28;20265;-76
2023/04/05 19:55:27;;;;;;;6.27;4.23;;;;;1.60;96553.00;;;;8353833;28;20215;-76
2023/04/05 19:59:34;;;;;;;10.73;4.97;;;;;1.40;96566.00;;;;8363992;28;20318;-76
2023/04/05 20:03:39;;;;;;;9.83;5.37;;;;;1.30;96560.00;;;;8352150;28;20699;-76
2023/04/05 20:07:43;;;;;;;12.30;6.47;;;;;1.20;96556.00;;;;8335349;28;20659;-75
2023/04/05 20:11:50;;;;;;;16.07;6.63;;;;;1.10;96556.00;;;;8350348;28;20206;-76
2023/04/05 20:15:54;;;;;;;10.40;5.50;;;;;1.00;96560.00;;;;8352450;28;20216;-76
2023/04/05 20:20:00;;;;;;;13.80;7.00;;;;;1.00;96559.00;;;;8357137;28;20222;-77
2023/04/05 20:24:12;;;;;;;11.87;6.07;;;;;0.90;96554.00;;;;8357873;28;20717;-77
2023/04/05 20:28:42;;;;;;;14.33;7.03;;;;;0.80;96560.00;;;;8355916;28;20206;-77
2023/04/05 20:32:45;;;;;;;14.07;6.70;;;;;0.80;96561.00;;;;8345109;28;20655;-77
2023/04/05 20:36:55;;;;;;;12.93;6.80;;;;;0.80;96549.00;;;;8354748;28;20240;-77